Time;durP1;ratioP1;P1;durP2;ratioP2;P2;SDS_P1;SDS_P2;PMS_P1;PMS_P2;Temp;Humidity;BMP_temperature;BMP_pressure;BME280_temperature;BME280_humidity;BME280_pressure;Samples;Min_cycle;Max_cycle;Signal;HPM_P1;HPM_P2
2022/07/31 00:01:23;;;;;;;3.95;2.13;;;;;;;;;;4947947;28;20035;-73
2022/07/31 00:03:48;;;;;;;5.25;1.90;;;;;;;;;;4950026;28;20030;-77
2022/07/31 00:06:14;;;;;;;2.55;1.70;;;;;;;;;;4949977;28;20046;-74
2022/07/31 00:08:39;;;;;;;5.05;1.83;;;;;;;;;;4950514;28;20031;-73
2022/07/31 00:11:04;;;;;;;3.72;1.92;;;;;;;;;;4949093;28;20072;-74
2022/07/31 00:13:30;;;;;;;3.80;2.30;;;;;;;;;;4945871;28;20533;-74
2022/07/31 00:15:55;;;;;;;3.28;1.92;;;;;;;;;;4948187;28;20043;-73
2022/07/31 00:18:21;;;;;;;2.40;1.98;;;;;;;;;;4947222;28;20039;-75
2022/07/31 00:20:48;;;;;;;4.28;2.30;;;;;;;;;;4948649;28;20028;-74
2022/07/31 00:23:13;;;;;;;3.42;2.00;;;;;;;;;;4929068;29;20031;-75
2022/07/31 00:25:39;;;;;;;5.60;2.28;;;;;;;;;;4946209;28;20134;-74
2022/07/31 00:28:06;;;;;;;4.80;2.00;;;;;;;;;;4938984;28;20062;-74
2022/07/31 00:30:31;;;;;;;4.85;2.13;;;;;;;;;;4935729;28;20070;-74
2022/07/31 00:32:56;;;;;;;3.17;2.30;;;;;;;;;;4951638;28;20073;-74
2022/07/31 00:35:22;;;;;;;3.97;2.25;;;;;;;;;;4951783;28;20038;-73
2022/07/31 00:37:47;;;;;;;4.15;2.22;;;;;;;;;;4950035;28;20027;-72
2022/07/31 00:40:15;;;;;;;4.30;1.98;;;;;;;;;;4937027;28;20039;-78
2022/07/31 00:42:40;;;;;;;5.78;2.03;;;;;;;;;;4939709;28;20487;-75
2022/07/31 00:45:06;;;;;;;2.72;1.80;;;;;;;;;;4948833;28;20130;-74
2022/07/31 00:47:32;;;;;;;3.55;2.00;;;;;;;;;;4949718;28;20060;-74
2022/07/31 00:49:57;;;;;;;2.22;1.70;;;;;;;;;;4947474;28;20051;-75
2022/07/31 00:52:23;;;;;;;2.25;1.88;;;;;;;;;;4951825;28;20099;-74
2022/07/31 00:54:48;;;;;;;3.50;1.90;;;;;;;;;;4949116;28;20043;-74
2022/07/31 00:57:14;;;;;;;4.43;1.83;;;;;;;;;;4945784;28;20075;-75
2022/07/31 00:59:40;;;;;;;2.40;1.70;;;;;;;;;;4950632;28;20459;-74
2022/07/31 01:02:07;;;;;;;4.70;1.88;;;;;;;;;;4947832;28;20049;-74
2022/07/31 01:04:33;;;;;;;2.70;1.70;;;;;;;;;;4948093;28;20057;-74
2022/07/31 01:06:59;;;;;;;3.25;1.88;;;;;;;;;;4936639;28;21177;-72
2022/07/31 01:09:25;;;;;;;4.10;1.80;;;;;;;;;;4935531;28;20054;-75
2022/07/31 01:12:08;;;;;;;4.38;1.90;;;;;;;;;;4944871;28;20373;-74
2022/07/31 01:14:39;;;;;;;4.80;1.90;;;;;;;;;;4928292;29;20027;-74
2022/07/31 01:17:06;;;;;;;5.47;1.77;;;;;;;;;;4948228;28;20043;-74
2022/07/31 01:19:42;;;;;;;3.33;1.80;;;;;;;;;;4933218;28;20095;-75
2022/07/31 01:22:35;;;;;;;3.35;1.73;;;;;;;;;;4942436;28;20130;-74
2022/07/31 01:25:19;;;;;;;2.50;1.75;;;;;;;;;;4947509;28;20035;-74
2022/07/31 01:28:04;;;;;;;3.90;1.95;;;;;;;;;;4937026;28;20166;-76
2022/07/31 01:30:35;;;;;;;6.70;2.00;;;;;;;;;;4960669;28;20036;-75
2022/07/31 01:33:14;;;;;;;4.60;1.90;;;;;;;;;;4930649;28;20032;-73
2022/07/31 01:35:46;;;;;;;4.30;2.13;;;;;;;;;;4947475;28;20035;-74
2022/07/31 01:38:16;;;;;;;3.47;2.08;;;;;;;;;;4946442;28;20126;-73
2022/07/31 01:40:45;;;;;;;4.53;1.92;;;;;;;;;;4950712;28;20042;-74
2022/07/31 01:43:21;;;;;;;3.88;1.95;;;;;;;;;;4936713;28;20051;-74
2022/07/31 01:45:50;;;;;;;2.78;1.98;;;;;;;;;;4929404;29;20083;-74
2022/07/31 01:48:16;;;;;;;4.85;2.15;;;;;;;;;;4932140;28;20078;-73
2022/07/31 01:50:45;;;;;;;3.47;2.20;;;;;;;;;;4951101;28;20121;-75
2022/07/31 01:53:14;;;;;;;3.35;2.03;;;;;;;;;;4945923;28;20046;-74
2022/07/31 01:55:42;;;;;;;3.88;2.20;;;;;;;;;;4945698;28;20106;-74
2022/07/31 01:58:10;;;;;;;6.97;2.20;;;;;;;;;;4950204;28;20847;-75
2022/07/31 02:00:37;;;;;;;3.65;2.03;;;;;;;;;;4944960;28;20164;-73
2022/07/31 02:03:04;;;;;;;3.05;1.90;;;;;;;;;;4943061;28;20039;-73
2022/07/31 02:05:32;;;;;;;2.15;1.90;;;;;;;;;;4926795;29;20078;-74
2022/07/31 02:07:58;;;;;;;3.55;2.00;;;;;;;;;;4946659;28;20126;-73
2022/07/31 02:10:24;;;;;;;3.65;2.10;;;;;;;;;;4932538;28;20527;-74
2022/07/31 02:12:50;;;;;;;4.28;2.10;;;;;;;;;;4928693;29;20042;-73
2022/07/31 02:15:18;;;;;;;3.92;2.30;;;;;;;;;;4932849;28;20047;-73
2022/07/31 02:17:45;;;;;;;3.60;2.22;;;;;;;;;;4948372;28;20046;-72
2022/07/31 02:20:13;;;;;;;4.72;2.30;;;;;;;;;;4928333;29;20036;-74
2022/07/31 02:22:38;;;;;;;2.38;1.65;;;;;;;;;;4944332;28;20038;-73
2022/07/31 02:25:05;;;;;;;2.65;1.85;;;;;;;;;;4938845;28;20563;-75
2022/07/31 02:27:32;;;;;;;2.47;2.00;;;;;;;;;;4942607;28;20051;-72
2022/07/31 02:30:01;;;;;;;3.35;1.90;;;;;;;;;;4954110;28;20035;-72
2022/07/31 02:32:30;;;;;;;3.40;1.80;;;;;;;;;;4935877;29;20027;-74
2022/07/31 02:34:59;;;;;;;4.43;1.90;;;;;;;;;;4935702;28;20067;-75
2022/07/31 02:37:25;;;;;;;2.63;2.03;;;;;;;;;;4938637;29;20051;-74
2022/07/31 02:39:53;;;;;;;2.85;2.00;;;;;;;;;;4948881;28;20502;-75
2022/07/31 02:42:20;;;;;;;4.22;2.13;;;;;;;;;;4946910;28;20612;-74
2022/07/31 02:44:46;;;;;;;3.45;2.13;;;;;;;;;;4930661;28;20132;-74
2022/07/31 02:47:13;;;;;;;2.90;2.00;;;;;;;;;;4962404;28;20043;-75
2022/07/31 02:49:39;;;;;;;2.58;2.05;;;;;;;;;;4948683;28;20126;-73
2022/07/31 02:52:05;;;;;;;4.75;2.00;;;;;;;;;;4942805;28;20058;-74
2022/07/31 02:54:33;;;;;;;3.55;1.95;;;;;;;;;;4939731;28;20040;-73
2022/07/31 02:56:59;;;;;;;3.28;2.10;;;;;;;;;;4926983;28;20388;-74
2022/07/31 02:59:24;;;;;;;2.65;1.92;;;;;;;;;;4927044;29;20116;-73
2022/07/31 03:01:50;;;;;;;4.45;1.80;;;;;;;;;;4928309;28;20176;-74
2022/07/31 03:04:16;;;;;;;2.65;1.92;;;;;;;;;;4941723;28;20027;-73
2022/07/31 03:06:42;;;;;;;3.28;2.05;;;;;;;;;;4938278;28;20095;-71
2022/07/31 03:09:07;;;;;;;2.53;1.88;;;;;;;;;;4931674;28;20043;-74
2022/07/31 03:11:33;;;;;;;4.13;2.20;;;;;;;;;;4945293;28;20447;-74
2022/07/31 03:14:00;;;;;;;5.63;2.00;;;;;;;;;;4944677;28;20488;-73
2022/07/31 03:16:28;;;;;;;3.38;2.10;;;;;;;;;;4949611;28;20228;-73
2022/07/31 03:18:55;;;;;;;4.90;1.95;;;;;;;;;;4946831;28;20043;-75
2022/07/31 03:21:21;;;;;;;4.13;1.60;;;;;;;;;;4944813;28;20043;-74
2022/07/31 03:23:46;;;;;;;4.32;1.98;;;;;;;;;;4946462;28;20039;-73
2022/07/31 03:26:13;;;;;;;3.25;1.80;;;;;;;;;;4951168;28;20376;-75
2022/07/31 03:28:40;;;;;;;2.63;2.00;;;;;;;;;;4945461;28;20036;-73
2022/07/31 03:31:06;;;;;;;2.17;1.98;;;;;;;;;;4945575;28;20515;-74
2022/07/31 03:33:32;;;;;;;3.53;1.95;;;;;;;;;;4945139;28;20043;-73
2022/07/31 03:35:58;;;;;;;3.60;1.80;;;;;;;;;;4945474;28;20042;-75
2022/07/31 03:38:24;;;;;;;3.40;2.10;;;;;;;;;;4947054;28;20412;-72
2022/07/31 03:40:49;;;;;;;4.22;2.00;;;;;;;;;;4946251;28;20043;-72
2022/07/31 03:43:16;;;;;;;3.40;1.77;;;;;;;;;;4945971;28;20506;-74
2022/07/31 03:45:43;;;;;;;3.88;1.70;;;;;;;;;;4944722;28;20039;-74
2022/07/31 03:48:09;;;;;;;6.80;2.30;;;;;;;;;;4947644;28;20043;-73
2022/07/31 03:50:39;;;;;;;3.95;1.95;;;;;;;;;;4944596;28;20031;-74
2022/07/31 03:53:05;;;;;;;3.83;2.40;;;;;;;;;;4940327;28;20048;-74
2022/07/31 03:55:34;;;;;;;2.83;2.03;;;;;;;;;;4926681;28;20077;-75
2022/07/31 03:58:01;;;;;;;3.28;1.70;;;;;;;;;;4939167;28;20059;-71
2022/07/31 04:00:26;;;;;;;4.20;2.35;;;;;;;;;;4938958;28;20039;-74
2022/07/31 04:02:56;;;;;;;4.10;1.77;;;;;;;;;;4928055;28;20031;-77
2022/07/31 04:05:22;;;;;;;4.47;1.65;;;;;;;;;;4947181;28;20031;-75
2022/07/31 04:07:48;;;;;;;4.32;2.10;;;;;;;;;;4944214;28;20131;-74
2022/07/31 04:10:14;;;;;;;4.70;2.10;;;;;;;;;;4946220;28;20131;-73
2022/07/31 04:12:40;;;;;;;2.60;1.75;;;;;;;;;;4944146;28;20498;-72
2022/07/31 04:15:07;;;;;;;1.80;1.60;;;;;;;;;;4944583;28;20061;-72
2022/07/31 04:17:33;;;;;;;4.80;1.90;;;;;;;;;;4950333;28;20030;-74
2022/07/31 04:19:58;;;;;;;4.28;2.10;;;;;;;;;;4946624;28;20043;-76
2022/07/31 04:22:24;;;;;;;4.93;2.20;;;;;;;;;;4943966;28;20050;-74
2022/07/31 04:24:49;;;;;;;3.13;1.77;;;;;;;;;;4945604;28;20078;-74
2022/07/31 04:27:18;;;;;;;4.18;1.90;;;;;;;;;;4947491;28;20094;-74
2022/07/31 04:29:44;;;;;;;2.17;1.73;;;;;;;;;;4951367;28;20031;-73
2022/07/31 04:32:10;;;;;;;2.22;1.60;;;;;;;;;;4952694;28;20114;-76
2022/07/31 04:34:36;;;;;;;3.75;1.60;;;;;;;;;;4951937;28;20051;-71
2022/07/31 04:37:02;;;;;;;2.60;1.60;;;;;;;;;;4942635;28;20122;-73
2022/07/31 04:39:27;;;;;;;2.55;1.70;;;;;;;;;;4938716;28;20049;-73
2022/07/31 04:41:52;;;;;;;2.28;1.38;;;;;;;;;;4951525;28;20023;-76
2022/07/31 04:44:19;;;;;;;2.55;1.40;;;;;;;;;;4933778;29;20155;-74
2022/07/31 04:46:45;;;;;;;2.75;1.67;;;;;;;;;;4929963;28;20039;-74
2022/07/31 04:49:13;;;;;;;6.22;1.45;;;;;;;;;;4959414;28;20420;-75
2022/07/31 04:51:38;;;;;;;1.65;1.50;;;;;;;;;;4933901;28;20474;-72
2022/07/31 04:54:04;;;;;;;1.88;1.60;;;;;;;;;;4942869;28;20126;-73
2022/07/31 04:56:32;;;;;;;2.40;1.60;;;;;;;;;;4946080;28;20051;-73
2022/07/31 04:58:59;;;;;;;3.03;1.80;;;;;;;;;;4943968;28;20041;-74
2022/07/31 05:01:25;;;;;;;2.70;1.45;;;;;;;;;;4943806;28;20062;-75
2022/07/31 05:03:50;;;;;;;5.03;1.55;;;;;;;;;;4947103;28;20382;-71
2022/07/31 05:06:16;;;;;;;3.40;1.48;;;;;;;;;;4948828;28;20558;-73
2022/07/31 05:08:42;;;;;;;2.70;1.42;;;;;;;;;;4946919;28;20373;-75
2022/07/31 05:11:24;;;;;;;1.50;1.38;;;;;;;;;;4947505;28;20031;-72
2022/07/31 05:13:51;;;;;;;2.63;1.40;;;;;;;;;;4948154;28;20129;-73
2022/07/31 05:16:17;;;;;;;2.75;1.25;;;;;;;;;;4949630;28;20035;-74
2022/07/31 05:18:46;;;;;;;4.28;1.83;;;;;;;;;;4941081;28;20036;-73
2022/07/31 05:21:13;;;;;;;2.95;1.42;;;;;;;;;;4927351;28;20036;-75
2022/07/31 05:23:40;;;;;;;3.53;1.40;;;;;;;;;;4927674;29;20421;-71
2022/07/31 05:26:06;;;;;;;1.63;1.27;;;;;;;;;;4929583;28;20043;-74
2022/07/31 05:28:32;;;;;;;3.10;1.85;;;;;;;;;;4928745;28;20066;-76
2022/07/31 05:30:57;;;;;;;2.75;1.80;;;;;;;;;;4924105;28;20044;-72
2022/07/31 05:33:23;;;;;;;3.05;1.52;;;;;;;;;;4925579;28;20063;-72
2022/07/31 05:35:48;;;;;;;2.78;1.40;;;;;;;;;;4930125;28;20028;-74
2022/07/31 05:38:14;;;;;;;3.35;1.40;;;;;;;;;;4929973;29;20038;-74
2022/07/31 05:40:39;;;;;;;2.30;1.40;;;;;;;;;;4927187;28;20042;-72
2022/07/31 05:43:05;;;;;;;2.53;1.25;;;;;;;;;;4921885;29;20052;-72
2022/07/31 05:45:31;;;;;;;2.50;1.70;;;;;;;;;;4929625;28;20046;-75
2022/07/31 05:47:56;;;;;;;2.78;1.40;;;;;;;;;;4943032;28;20779;-74
2022/07/31 05:50:22;;;;;;;2.08;1.60;;;;;;;;;;4931596;28;20190;-73
2022/07/31 05:52:48;;;;;;;1.75;1.50;;;;;;;;;;4933671;28;20051;-74
2022/07/31 05:55:14;;;;;;;1.50;1.40;;;;;;;;;;4928691;28;20172;-74
2022/07/31 05:57:39;;;;;;;3.65;1.63;;;;;;;;;;4936453;28;20411;-75
2022/07/31 06:00:05;;;;;;;2.60;1.38;;;;;;;;;;4944345;28;20487;-73
2022/07/31 06:02:31;;;;;;;2.55;1.52;;;;;;;;;;4936252;29;20035;-74
2022/07/31 06:04:56;;;;;;;3.10;1.58;;;;;;;;;;4928756;29;20373;-72
2022/07/31 06:07:21;;;;;;;1.60;1.38;;;;;;;;;;4942276;28;20071;-73
2022/07/31 06:09:47;;;;;;;1.50;1.40;;;;;;;;;;4939298;28;20086;-74
2022/07/31 06:12:12;;;;;;;2.53;1.60;;;;;;;;;;4926275;28;20079;-73
2022/07/31 06:14:37;;;;;;;3.58;1.55;;;;;;;;;;4929635;29;20043;-75
2022/07/31 06:17:07;;;;;;;4.38;1.90;;;;;;;;;;4953450;28;20067;-73
2022/07/31 06:19:33;;;;;;;3.45;1.92;;;;;;;;;;4947258;28;20031;-72
2022/07/31 06:21:59;;;;;;;4.35;1.65;;;;;;;;;;4951103;28;20082;-73
2022/07/31 06:24:24;;;;;;;4.18;1.52;;;;;;;;;;4948076;28;20555;-72
2022/07/31 06:26:50;;;;;;;2.35;1.77;;;;;;;;;;4951199;28;20476;-73
2022/07/31 06:29:16;;;;;;;7.13;2.35;;;;;;;;;;4953453;28;20035;-73
2022/07/31 06:31:41;;;;;;;6.72;2.17;;;;;;;;;;4953752;28;20086;-73
2022/07/31 06:34:07;;;;;;;7.70;2.45;;;;;;;;;;4952130;28;20123;-75
2022/07/31 06:36:32;;;;;;;6.57;2.85;;;;;;;;;;4951629;28;20055;-74
2022/07/31 06:38:57;;;;;;;8.13;3.10;;;;;;;;;;4951576;28;20039;-74
2022/07/31 06:44:07;;;;;;;9.85;2.83;;;;;;;;;;4931512;29;20476;-72
2022/07/31 06:46:33;;;;;;;11.90;3.72;;;;;;;;;;4941757;28;20127;-72
2022/07/31 06:48:58;;;;;;;10.00;3.03;;;;;;;;;;4954518;28;20071;-73
2022/07/31 06:51:23;;;;;;;8.88;2.83;;;;;;;;;;4947111;28;20480;-73
2022/07/31 06:53:49;;;;;;;5.97;2.63;;;;;;;;;;4950232;28;20050;-73
2022/07/31 06:56:14;;;;;;;6.70;2.33;;;;;;;;;;4927164;29;20031;-72
2022/07/31 06:58:40;;;;;;;4.78;2.03;;;;;;;;;;4932094;28;20312;-71
2022/07/31 07:01:05;;;;;;;6.45;2.53;;;;;;;;;;4940904;28;20031;-72
2022/07/31 07:03:31;;;;;;;11.20;2.53;;;;;;;;;;4945941;28;20059;-70
2022/07/31 07:05:56;;;;;;;9.90;3.60;;;;;;;;;;4946234;28;20113;-71
2022/07/31 07:08:21;;;;;;;5.45;2.33;;;;;;;;;;4931553;29;20024;-76
2022/07/31 07:10:47;;;;;;;9.73;2.78;;;;;;;;;;4943392;28;20384;-73
2022/07/31 07:13:12;;;;;;;8.32;3.05;;;;;;;;;;4952348;28;20128;-74
2022/07/31 07:15:37;;;;;;;6.47;2.45;;;;;;;;;;4949434;28;20071;-73
2022/07/31 07:18:03;;;;;;;12.02;2.75;;;;;;;;;;4949120;28;20047;-73
2022/07/31 07:20:28;;;;;;;7.63;2.40;;;;;;;;;;4946374;28;20031;-73
2022/07/31 07:22:54;;;;;;;9.10;2.38;;;;;;;;;;4946600;28;20039;-72
2022/07/31 07:25:19;;;;;;;5.35;2.25;;;;;;;;;;4938012;28;20040;-74
2022/07/31 07:27:45;;;;;;;4.40;2.20;;;;;;;;;;4939458;28;20035;-71
2022/07/31 07:30:11;;;;;;;4.47;2.33;;;;;;;;;;4947709;28;20031;-73
2022/07/31 07:32:37;;;;;;;5.97;2.50;;;;;;;;;;4947318;28;20038;-72
2022/07/31 07:35:03;;;;;;;4.53;2.38;;;;;;;;;;4947227;28;20050;-72
2022/07/31 07:37:28;;;;;;;5.72;2.38;;;;;;;;;;4945590;28;21556;-71
2022/07/31 07:39:55;;;;;;;7.40;2.38;;;;;;;;;;4950990;28;20132;-72
2022/07/31 07:42:20;;;;;;;8.23;2.47;;;;;;;;;;4947711;28;20086;-75
2022/07/31 07:44:45;;;;;;;9.93;2.47;;;;;;;;;;4941041;28;20471;-73
2022/07/31 07:47:11;;;;;;;5.10;2.30;;;;;;;;;;4947023;28;20034;-72
2022/07/31 07:49:36;;;;;;;5.25;2.08;;;;;;;;;;4940220;28;20035;-73
2022/07/31 07:52:02;;;;;;;4.32;2.20;;;;;;;;;;4940351;28;20039;-72
2022/07/31 07:54:28;;;;;;;5.90;2.50;;;;;;;;;;4943093;28;20467;-73
2022/07/31 07:56:54;;;;;;;9.52;2.47;;;;;;;;;;4944506;28;20030;-73
2022/07/31 07:59:20;;;;;;;5.50;2.83;;;;;;;;;;4940597;28;20068;-74
2022/07/31 08:01:45;;;;;;;11.55;3.03;;;;;;;;;;4947220;28;20039;-74
2022/07/31 08:04:10;;;;;;;7.25;2.65;;;;;;;;;;4945453;28;20070;-74
2022/07/31 08:06:36;;;;;;;7.72;2.50;;;;;;;;;;4946074;28;22017;-74
2022/07/31 08:09:02;;;;;;;8.15;2.50;;;;;;;;;;4943112;28;20440;-74
2022/07/31 08:11:28;;;;;;;6.88;2.55;;;;;;;;;;4947652;28;20035;-73
2022/07/31 08:13:54;;;;;;;9.68;2.42;;;;;;;;;;4944961;28;20090;-72
2022/07/31 08:16:20;;;;;;;12.45;2.50;;;;;;;;;;4933280;28;20046;-75
2022/07/31 08:18:47;;;;;;;6.63;2.55;;;;;;;;;;4926003;28;20415;-74
2022/07/31 08:21:13;;;;;;;13.45;2.83;;;;;;;;;;4923853;28;20047;-73
2022/07/31 08:23:38;;;;;;;8.25;2.38;;;;;;;;;;4925271;28;20395;-72
2022/07/31 08:26:07;;;;;;;10.00;2.70;;;;;;;;;;4944515;28;20066;-72
2022/07/31 08:28:33;;;;;;;5.07;2.60;;;;;;;;;;4933193;28;20027;-72
2022/07/31 08:30:58;;;;;;;4.63;2.38;;;;;;;;;;4927955;28;20058;-72
2022/07/31 08:33:23;;;;;;;7.18;2.30;;;;;;;;;;4937001;28;20481;-73
2022/07/31 08:35:49;;;;;;;5.75;2.10;;;;;;;;;;4930248;28;20023;-73
2022/07/31 08:38:16;;;;;;;6.05;2.10;;;;;;;;;;4929950;29;20036;-74
2022/07/31 08:40:42;;;;;;;4.38;1.98;;;;;;;;;;4946461;28;20086;-73
2022/07/31 08:43:07;;;;;;;8.05;2.35;;;;;;;;;;4937129;28;20130;-71
2022/07/31 08:45:36;;;;;;;5.20;2.08;;;;;;;;;;4924870;28;20040;-71
2022/07/31 08:48:03;;;;;;;4.97;2.10;;;;;;;;;;4921686;29;21628;-71
2022/07/31 08:50:29;;;;;;;6.68;2.33;;;;;;;;;;4925069;29;20039;-74
2022/07/31 08:52:56;;;;;;;8.48;2.53;;;;;;;;;;4945596;28;20047;-73
2022/07/31 08:55:22;;;;;;;4.43;1.90;;;;;;;;;;4942461;28;20062;-72
2022/07/31 08:57:48;;;;;;;3.95;1.88;;;;;;;;;;4938476;28;20047;-74
2022/07/31 09:00:16;;;;;;;3.50;2.05;;;;;;;;;;4927948;28;20094;-71
2022/07/31 09:02:45;;;;;;;5.95;1.77;;;;;;;;;;4946966;28;20058;-73
2022/07/31 09:05:12;;;;;;;6.40;2.15;;;;;;;;;;4944483;28;20141;-72
2022/07/31 09:07:37;;;;;;;4.35;2.17;;;;;;;;;;4940605;28;20039;-72
2022/07/31 09:10:18;;;;;;;5.50;2.35;;;;;;;;;;4944440;28;20031;-72
2022/07/31 09:12:43;;;;;;;3.80;1.75;;;;;;;;;;4960042;28;20443;-74
2022/07/31 09:15:22;;;;;;;3.92;1.90;;;;;;;;;;4940690;28;20126;-71
2022/07/31 09:17:49;;;;;;;6.00;2.28;;;;;;;;;;4938523;28;20043;-72
2022/07/31 09:20:20;;;;;;;4.03;2.08;;;;;;;;;;4943303;28;20047;-71
2022/07/31 09:22:47;;;;;;;4.18;1.83;;;;;;;;;;4944990;28;20035;-70
2022/07/31 09:25:20;;;;;;;4.65;2.03;;;;;;;;;;4930950;28;20043;-74
2022/07/31 09:27:47;;;;;;;2.13;1.90;;;;;;;;;;4922375;29;20130;-73
2022/07/31 09:30:13;;;;;;;4.40;1.85;;;;;;;;;;4923853;28;20254;-73
2022/07/31 09:32:38;;;;;;;2.38;1.80;;;;;;;;;;4925341;29;20057;-72
2022/07/31 09:35:11;;;;;;;3.42;1.77;;;;;;;;;;4921536;28;20052;-74
2022/07/31 09:37:37;;;;;;;3.47;1.90;;;;;;;;;;4925785;28;20119;-73
2022/07/31 09:40:04;;;;;;;5.75;1.67;;;;;;;;;;4936128;28;20043;-71
2022/07/31 09:42:42;;;;;;;3.85;1.98;;;;;;;;;;4948835;28;20102;-73
2022/07/31 09:45:19;;;;;;;5.85;1.90;;;;;;;;;;4943992;28;20646;-73
2022/07/31 09:47:44;;;;;;;6.15;2.60;;;;;;;;;;4928113;29;20059;-72
2022/07/31 09:50:10;;;;;;;4.97;1.98;;;;;;;;;;4931539;29;20028;-72
2022/07/31 09:52:35;;;;;;;2.90;1.85;;;;;;;;;;4945187;28;20507;-72
2022/07/31 09:55:11;;;;;;;3.03;1.77;;;;;;;;;;4947912;28;20039;-73
2022/07/31 09:57:38;;;;;;;4.90;2.05;;;;;;;;;;4946523;28;20094;-72
2022/07/31 10:00:09;;;;;;;6.18;2.60;;;;;;;;;;4949105;28;20402;-73
2022/07/31 10:02:37;;;;;;;2.63;1.90;;;;;;;;;;4946229;28;20077;-74
2022/07/31 10:05:05;;;;;;;4.60;2.03;;;;;;;;;;4944746;28;20102;-71
2022/07/31 10:07:34;;;;;;;5.53;1.92;;;;;;;;;;4944890;28;20130;-74
2022/07/31 10:10:01;;;;;;;2.97;1.75;;;;;;;;;;4943272;28;20039;-74
2022/07/31 10:12:29;;;;;;;5.25;2.20;;;;;;;;;;4949415;28;20038;-73
2022/07/31 10:15:01;;;;;;;4.28;1.92;;;;;;;;;;4945499;28;20051;-72
2022/07/31 10:17:29;;;;;;;6.10;1.75;;;;;;;;;;4942790;28;20036;-74
2022/07/31 10:20:01;;;;;;;2.30;1.75;;;;;;;;;;4947583;28;20129;-71
2022/07/31 10:22:33;;;;;;;6.72;2.28;;;;;;;;;;4963549;28;20408;-72
2022/07/31 10:25:00;;;;;;;3.15;1.75;;;;;;;;;;4943733;28;20038;-71
2022/07/31 10:27:27;;;;;;;3.03;1.90;;;;;;;;;;4953225;28;20031;-70
2022/07/31 10:29:53;;;;;;;6.03;1.95;;;;;;;;;;4952319;28;20023;-72
2022/07/31 10:32:19;;;;;;;2.90;1.95;;;;;;;;;;4985011;28;20118;-71
2022/07/31 10:34:45;;;;;;;2.38;1.80;;;;;;;;;;4950633;28;20059;-70
2022/07/31 10:37:18;;;;;;;4.18;2.00;;;;;;;;;;4941017;28;20051;-70
2022/07/31 10:40:07;;;;;;;3.13;1.80;;;;;;;;;;4947078;28;20500;-71
2022/07/31 10:42:48;;;;;;;5.45;1.90;;;;;;;;;;4940368;28;20039;-71
2022/07/31 10:45:14;;;;;;;5.55;1.90;;;;;;;;;;4953151;28;20044;-70
2022/07/31 10:47:51;;;;;;;3.97;1.98;;;;;;;;;;4927201;29;21566;-71
2022/07/31 10:50:24;;;;;;;4.22;2.03;;;;;;;;;;4926815;29;20044;-73
2022/07/31 10:52:50;;;;;;;3.75;2.40;;;;;;;;;;4925614;28;20043;-70
2022/07/31 10:55:20;;;;;;;4.57;1.70;;;;;;;;;;4942184;28;20035;-70
2022/07/31 10:57:46;;;;;;;3.50;1.80;;;;;;;;;;4961762;28;20121;-70
2022/07/31 11:00:16;;;;;;;3.05;1.85;;;;;;;;;;4942201;28;20047;-70
2022/07/31 11:02:42;;;;;;;3.10;1.92;;;;;;;;;;4945751;28;20059;-71
2022/07/31 11:05:19;;;;;;;9.27;1.70;;;;;;;;;;4925087;29;20043;-70
2022/07/31 11:07:45;;;;;;;3.53;1.98;;;;;;;;;;4923966;28;20044;-72
2022/07/31 11:10:14;;;;;;;4.93;1.98;;;;;;;;;;4930755;28;20032;-71
2022/07/31 11:12:40;;;;;;;7.43;2.05;;;;;;;;;;4927301;28;20043;-71
2022/07/31 11:15:26;;;;;;;3.80;2.05;;;;;;;;;;4933472;28;20058;-71
2022/07/31 11:17:52;;;;;;;3.35;1.90;;;;;;;;;;4945890;28;20503;-71
2022/07/31 11:20:24;;;;;;;2.85;2.15;;;;;;;;;;4922539;29;20044;-73
2022/07/31 11:23:16;;;;;;;3.85;1.75;;;;;;;;;;4920515;29;20353;-71
2022/07/31 11:25:44;;;;;;;2.17;1.52;;;;;;;;;;4922093;29;20463;-72
2022/07/31 11:28:17;;;;;;;4.10;2.05;;;;;;;;;;4934465;28;20503;-72
2022/07/31 11:31:00;;;;;;;2.47;1.73;;;;;;;;;;4938390;28;20066;-71
2022/07/31 11:33:41;;;;;;;5.70;1.80;;;;;;;;;;4923665;28;20043;-71
2022/07/31 11:36:11;;;;;;;3.75;1.73;;;;;;;;;;4929186;28;20146;-72
2022/07/31 11:38:39;;;;;;;4.30;1.80;;;;;;;;;;4948854;28;20216;-71
2022/07/31 11:41:05;;;;;;;4.32;1.75;;;;;;;;;;4923229;28;20067;-72
2022/07/31 11:43:33;;;;;;;3.95;2.35;;;;;;;;;;4941255;28;20082;-71
2022/07/31 11:45:59;;;;;;;3.17;1.85;;;;;;;;;;4944627;28;20065;-71
2022/07/31 11:48:25;;;;;;;2.90;1.55;;;;;;;;;;4943669;28;20062;-73
2022/07/31 11:50:51;;;;;;;4.20;2.10;;;;;;;;;;4932011;29;20028;-71
2022/07/31 11:53:18;;;;;;;4.90;2.10;;;;;;;;;;4958433;28;20035;-73
2022/07/31 11:55:52;;;;;;;3.17;1.55;;;;;;;;;;4929544;28;20091;-70
2022/07/31 11:58:19;;;;;;;2.42;1.85;;;;;;;;;;4945711;28;20035;-71
2022/07/31 12:00:50;;;;;;;2.22;1.60;;;;;;;;;;4944208;28;20500;-72
2022/07/31 12:03:17;;;;;;;4.07;2.20;;;;;;;;;;4937565;28;20047;-72
2022/07/31 12:05:44;;;;;;;3.65;1.92;;;;;;;;;;4948194;28;20042;-70
2022/07/31 12:08:10;;;;;;;4.85;1.80;;;;;;;;;;4950079;28;20019;-70
2022/07/31 12:10:37;;;;;;;3.88;1.90;;;;;;;;;;4944615;28;20038;-72
2022/07/31 12:13:02;;;;;;;3.50;2.13;;;;;;;;;;4950026;28;20495;-72
2022/07/31 12:15:28;;;;;;;4.65;1.92;;;;;;;;;;4948010;28;20054;-73
2022/07/31 12:18:01;;;;;;;6.03;1.77;;;;;;;;;;4944773;28;20436;-70
2022/07/31 12:20:27;;;;;;;2.75;1.83;;;;;;;;;;4947127;28;20483;-71
2022/07/31 12:23:01;;;;;;;1.90;1.70;;;;;;;;;;4944346;28;20035;-73
2022/07/31 12:25:27;;;;;;;3.00;1.70;;;;;;;;;;4945008;28;20239;-70
2022/07/31 12:27:53;;;;;;;8.80;2.00;;;;;;;;;;4944516;28;20566;-71
2022/07/31 12:30:23;;;;;;;4.63;2.20;;;;;;;;;;4947888;28;20407;-71
2022/07/31 12:32:49;;;;;;;3.78;1.80;;;;;;;;;;4949068;28;20047;-72
2022/07/31 12:35:14;;;;;;;1.65;1.50;;;;;;;;;;4950391;28;20035;-73
2022/07/31 12:37:45;;;;;;;4.45;1.52;;;;;;;;;;4946736;28;20040;-71
2022/07/31 12:40:21;;;;;;;3.40;1.95;;;;;;;;;;4937947;28;20047;-72
2022/07/31 12:42:47;;;;;;;4.65;1.90;;;;;;;;;;4930270;28;20171;-71
2022/07/31 12:45:12;;;;;;;1.80;1.40;;;;;;;;;;4929509;28;20142;-72
2022/07/31 12:47:38;;;;;;;4.57;1.95;;;;;;;;;;4930137;28;21571;-70
2022/07/31 12:50:04;;;;;;;1.85;1.58;;;;;;;;;;4944208;28;20527;-71
2022/07/31 12:52:31;;;;;;;3.28;1.20;;;;;;;;;;4928415;28;20188;-70
2022/07/31 12:54:57;;;;;;;1.77;1.38;;;;;;;;;;4957139;28;20569;-69
2022/07/31 12:57:23;;;;;;;4.35;1.63;;;;;;;;;;4929541;28;20058;-71
2022/07/31 12:59:48;;;;;;;4.53;1.60;;;;;;;;;;4942177;28;20034;-74
2022/07/31 13:02:13;;;;;;;2.78;1.40;;;;;;;;;;4927800;29;20086;-72
2022/07/31 13:04:39;;;;;;;3.05;1.90;;;;;;;;;;4939345;28;20031;-69
2022/07/31 13:07:04;;;;;;;2.75;1.75;;;;;;;;;;4942723;28;20848;-71
2022/07/31 13:09:30;;;;;;;2.35;1.42;;;;;;;;;;4940891;28;20589;-69
2022/07/31 13:11:55;;;;;;;1.48;1.30;;;;;;;;;;4944559;28;20023;-70
2022/07/31 13:14:24;;;;;;;2.92;1.38;;;;;;;;;;4943169;28;20039;-71
2022/07/31 13:16:52;;;;;;;1.98;1.10;;;;;;;;;;4928345;28;20046;-71
2022/07/31 13:19:17;;;;;;;2.67;1.35;;;;;;;;;;4930774;28;20170;-74
2022/07/31 13:21:43;;;;;;;1.77;1.50;;;;;;;;;;4932694;28;20432;-74
2022/07/31 13:24:09;;;;;;;2.22;1.30;;;;;;;;;;4945043;28;20086;-72
2022/07/31 13:26:35;;;;;;;2.53;1.50;;;;;;;;;;4945203;28;20110;-71
2022/07/31 13:29:01;;;;;;;1.13;1.10;;;;;;;;;;4929652;28;20399;-73
2022/07/31 13:31:26;;;;;;;1.17;1.00;;;;;;;;;;4941929;28;20098;-71
2022/07/31 13:33:52;;;;;;;1.55;1.17;;;;;;;;;;4933849;28;20035;-73
2022/07/31 13:36:17;;;;;;;2.67;1.20;;;;;;;;;;4927059;28;20042;-73
2022/07/31 13:38:42;;;;;;;1.15;1.05;;;;;;;;;;4922649;28;21782;-74
2022/07/31 13:41:22;;;;;;;1.52;1.20;;;;;;;;;;4926971;29;20127;-75
2022/07/31 13:43:51;;;;;;;4.32;1.38;;;;;;;;;;4960373;28;20043;-75
2022/07/31 13:46:20;;;;;;;1.63;0.90;;;;;;;;;;4931506;28;20028;-71
2022/07/31 13:48:46;;;;;;;0.88;0.85;;;;;;;;;;4937942;28;20098;-74
2022/07/31 13:51:11;;;;;;;2.03;1.00;;;;;;;;;;4945576;28;20039;-73
2022/07/31 13:53:37;;;;;;;3.13;1.10;;;;;;;;;;4943254;28;20043;-74
2022/07/31 13:56:03;;;;;;;2.28;1.33;;;;;;;;;;4945218;28;20041;-71
2022/07/31 13:58:28;;;;;;;1.92;1.10;;;;;;;;;;4944220;28;20181;-73
2022/07/31 14:00:58;;;;;;;1.35;1.08;;;;;;;;;;4933948;28;20135;-73
2022/07/31 14:03:24;;;;;;;1.20;1.10;;;;;;;;;;4924844;29;20095;-73
2022/07/31 14:05:50;;;;;;;1.20;1.10;;;;;;;;;;4924278;28;20035;-72
2022/07/31 14:08:17;;;;;;;1.25;0.82;;;;;;;;;;4927617;29;20035;-74
2022/07/31 14:10:44;;;;;;;1.20;0.95;;;;;;;;;;4945286;28;20106;-74
2022/07/31 14:13:10;;;;;;;1.00;0.90;;;;;;;;;;4938140;28;20131;-72
2022/07/31 14:15:35;;;;;;;2.75;0.90;;;;;;;;;;4925924;28;20342;-71
2022/07/31 14:18:00;;;;;;;2.85;1.40;;;;;;;;;;4945723;28;20383;-73
2022/07/31 14:20:26;;;;;;;1.33;0.90;;;;;;;;;;4925556;29;20050;-71
2022/07/31 14:22:52;;;;;;;1.50;0.80;;;;;;;;;;4930519;28;20399;-72
2022/07/31 14:25:17;;;;;;;1.30;0.93;;;;;;;;;;4929679;28;20059;-73
2022/07/31 14:27:44;;;;;;;2.45;1.05;;;;;;;;;;4932298;28;20028;-72
2022/07/31 14:30:11;;;;;;;2.78;0.90;;;;;;;;;;4935930;28;20039;-73
2022/07/31 14:32:36;;;;;;;2.90;1.13;;;;;;;;;;4954029;28;20022;-73
2022/07/31 14:35:02;;;;;;;1.13;1.02;;;;;;;;;;4953423;28;20138;-72
2022/07/31 14:37:28;;;;;;;1.58;1.00;;;;;;;;;;4955673;28;20138;-74
2022/07/31 14:39:53;;;;;;;1.25;0.98;;;;;;;;;;4943117;28;20563;-72
2022/07/31 14:42:19;;;;;;;1.83;0.90;;;;;;;;;;4934316;28;20034;-71
2022/07/31 14:44:45;;;;;;;3.88;1.08;;;;;;;;;;4934663;28;20063;-74
2022/07/31 14:47:11;;;;;;;1.77;1.48;;;;;;;;;;4953161;28;20031;-74